Aérodrome :
LOGIN :

S'inscrire | Disclaimer

   EN    FR    IT 

 










Légende :    VFR   VFR Marginal   IFR   IFR Intensif   IFR Très Intensif
Visi : 
Plafond : 
>= 8 km
>= 3000ft
5 à 8 km
1000 à 3000 ft
1500m à 5 km
500 à 1000 ft
800 à 1500m
200 à 500 ft
< 800m
< 200 ft
Symboles :   Orages  Brouillard  Fortes neiges  Fortes précipitations  Vent > 20 kt
SIGMETs :   Divers  Orages  Givrage  Turbulence  Onde Orograph.  Cendres Volcan.







- Altitude de l'aérodrome : 1470 ft
- Code IATA : KLU


LOWK - Klagenfurt

DERNIER METAR :
  • 261820Z AUTO 07003KT 9999 FEW002 31/18 Q1022 NOSIG

METARs EXPIRÉS :
  • 261750Z AUTO 07004KT 9999 NSC 32/18 Q1022 NOSIG
  • 261720Z 09003KT 030V140 CAVOK 33/16 Q1022 NOSIG
  • 261650Z 07004KT 9999 FEW060 33/16 Q1022 NOSIG
  • 261620Z 07003KT 360V120 9999 FEW060 34/15 Q1022 NOSIG
  • 261550Z 05003KT 330V100 9999 FEW060 33/12 Q1022 NOSIG

TAF TAF LOWK
Valide du 26 à 18h jusqu'au 27 à 18h UTC


261715Z 2618/2718 VRB02KT CAVOK TX34/2713Z TN20/2704Z
BECMG 2706/2708 9999 FEW060
PROB30
TEMPO 2713/2718 FEW060TCU
Pas de NOTAMs connus pour ce terrain.



MET'MAP, la Météo Aéronautique d'un coup d'oeil ! - Copyright ORBIFLY Décembre 2007 - Disclaimer

ORBIFLY MET'MAP TEAM :

Programmation & Développement : Alexandra Zaïnal
Conception & Développement : Baudouin d'Aumeries
Co-Programmation & Développement : Marc-Olivier Méhu
Soutien technique & logistique : Manuel Goepfert

Contact : metmap@orbifly.com




SOURCES & CREDITS :

   NOAA